TimeMST,TemperatureF,Dew PointF,Humidity,Sea Level PressureIn,VisibilityMPH,Wind Direction,Wind SpeedMPH,Gust SpeedMPH,PrecipitationIn,Events,Conditions,WindDirDegrees,DateUTC
12:52 AM,32.0,30.0,92,30.14,6.0,South,6.9,-,N/A,,Clear,190,2012-11-16 07:52:00
1:52 AM,33.1,30.0,89,30.12,7.0,South,6.9,-,N/A,,Clear,190,2012-11-16 08:52:00
2:52 AM,34.0,30.0,85,30.10,10.0,SSW,8.1,-,N/A,,Clear,210,2012-11-16 09:52:00
3:52 AM,34.0,30.0,85,30.10,10.0,Calm,Calm,-,N/A,,Clear,0,2012-11-16 10:52:00
4:52 AM,33.1,30.0,89,30.09,10.0,Calm,Calm,-,N/A,,Clear,0,2012-11-16 11:52:00
5:52 AM,33.1,28.9,85,30.11,10.0,SSE,6.9,-,N/A,,Partly Cloudy,160,2012-11-16 12:52:00
6:52 AM,35.1,28.9,78,30.12,10.0,South,11.5,-,N/A,,Clear,180,2012-11-16 13:52:00
7:52 AM,34.0,28.9,82,30.14,10.0,SSW,8.1,-,N/A,,Scattered Clouds,200,2012-11-16 14:52:00
8:52 AM,39.0,30.9,73,30.13,10.0,SW,8.1,-,N/A,,Overcast,220,2012-11-16 15:52:00
9:52 AM,44.1,28.0,53,30.12,10.0,SW,13.8,-,N/A,,Overcast,220,2012-11-16 16:52:00
10:52 AM,48.0,28.9,48,30.12,10.0,SSW,11.5,-,0.00,Rain,Light Rain,210,2012-11-16 17:52:00
11:52 AM,51.1,30.9,46,30.09,10.0,SSW,12.7,-,0.00,,Mostly Cloudy,210,2012-11-16 18:52:00
12:52 PM,55.9,26.1,32,30.05,10.0,SSW,15.0,20.7,N/A,,Overcast,200,2012-11-16 19:52:00
1:52 PM,52.0,27.0,38,30.07,10.0,SSW,16.1,24.2,0.00,,Overcast,210,2012-11-16 20:52:00
2:52 PM,52.0,32.0,47,30.07,10.0,SSW,19.6,25.3,N/A,,Overcast,210,2012-11-16 21:52:00
3:52 PM,51.1,37.0,59,30.05,10.0,South,17.3,24.2,N/A,,Overcast,180,2012-11-16 22:52:00
4:52 PM,48.9,39.0,69,30.06,10.0,South,19.6,28.8,N/A,,Overcast,180,2012-11-16 23:52:00
5:52 PM,48.0,37.9,68,30.05,10.0,South,12.7,-,N/A,,Overcast,190,2012-11-17 00:52:00
6:52 PM,43.0,37.0,80,30.08,10.0,WSW,11.5,-,N/A,,Partly Cloudy,240,2012-11-17 01:52:00
7:52 PM,42.1,36.0,79,30.09,10.0,SSW,12.7,-,N/A,,Clear,200,2012-11-17 02:52:00
8:52 PM,44.1,37.0,76,30.08,10.0,SW,11.5,-,N/A,,Scattered Clouds,220,2012-11-17 03:52:00
9:52 PM,42.1,36.0,79,30.08,10.0,WSW,4.6,-,N/A,,Overcast,250,2012-11-17 04:52:00
10:52 PM,45.0,37.0,74,30.05,10.0,WSW,9.2,-,N/A,,Overcast,240,2012-11-17 05:52:00
11:52 PM,41.0,37.0,86,30.06,10.0,Calm,Calm,-,0.01,Rain,Light Rain,0,2012-11-17 06:52:00